createdAt,value
2022-08-07T00:00:30.972Z,17.90
2022-08-07T00:02:57.853Z,17.90
2022-08-07T00:05:26.850Z,17.90
2022-08-07T00:07:58.250Z,17.90
2022-08-07T00:10:48.289Z,17.80
2022-08-07T00:13:26.898Z,17.80
2022-08-07T00:15:54.784Z,17.70
2022-08-07T00:18:26.203Z,17.70
2022-08-07T00:21:55.606Z,17.70
2022-08-07T00:24:02.744Z,17.70
2022-08-07T00:26:49.490Z,17.70
2022-08-07T00:29:18.004Z,17.60
2022-08-07T00:31:50.128Z,17.50
2022-08-07T00:34:18.138Z,17.50
2022-08-07T00:36:48.500Z,17.40
2022-08-07T00:39:20.522Z,17.40
2022-08-07T00:42:02.222Z,17.40
2022-08-07T00:44:33.604Z,17.30
2022-08-07T00:47:02.784Z,17.30
2022-08-07T00:50:20.670Z,17.40
2022-08-07T00:52:17.726Z,17.40
2022-08-07T00:54:53.661Z,17.30
2022-08-07T00:57:25.283Z,17.30
2022-08-07T00:59:54.403Z,17.30
2022-08-07T01:02:29.374Z,17.20
2022-08-07T01:04:59.241Z,17.20
2022-08-07T01:07:31.195Z,17.20
2022-08-07T01:10:06.252Z,17.10
2022-08-07T01:12:53.068Z,17.00
2022-08-07T01:16:00.704Z,17.00
2022-08-07T01:18:11.226Z,16.90
2022-08-07T01:20:57.512Z,16.90
2022-08-07T01:23:38.567Z,16.90
2022-08-07T01:26:07.844Z,16.90
2022-08-07T01:28:46.018Z,16.80
2022-08-07T01:31:17.954Z,16.90
2022-08-07T01:33:55.836Z,16.80
2022-08-07T01:36:34.039Z,16.70
2022-08-07T01:39:09.882Z,16.60
2022-08-07T01:41:40.804Z,16.50
2022-08-07T01:44:26.481Z,16.30
2022-08-07T01:46:54.564Z,16.20
2022-08-07T01:49:22.278Z,16.30
2022-08-07T01:52:01.546Z,16.30
2022-08-07T01:54:37.509Z,16.30
2022-08-07T01:58:06.788Z,16.20
2022-08-07T02:00:28.743Z,16.30
2022-08-07T02:03:12.125Z,16.20
2022-08-07T02:06:00.832Z,16.10
2022-08-07T02:08:29.784Z,16.20
2022-08-07T02:11:00.142Z,16.20
2022-08-07T02:13:58.029Z,16.30
2022-08-07T02:16:28.799Z,16.30
2022-08-07T02:19:05.512Z,16.30
2022-08-07T02:21:57.067Z,16.30
2022-08-07T02:24:29.954Z,16.30
2022-08-07T02:27:02.587Z,16.30
2022-08-07T02:29:36.800Z,16.20
2022-08-07T02:32:12.549Z,16.20
2022-08-07T02:34:48.889Z,16.20
2022-08-07T02:37:21.879Z,16.20
2022-08-07T02:40:02.099Z,16.20
2022-08-07T02:42:40.290Z,16.10
2022-08-07T02:45:58.230Z,16.00
2022-08-07T02:47:59.534Z,15.90
2022-08-07T02:50:30.719Z,15.90
2022-08-07T02:53:10.934Z,15.90
2022-08-07T02:56:03.430Z,16.00
2022-08-07T02:58:34.063Z,15.90
2022-08-07T03:01:03.863Z,15.90
2022-08-07T03:03:49.263Z,15.80
2022-08-07T03:06:25.436Z,15.90
2022-08-07T03:08:54.050Z,15.90
2022-08-07T03:11:21.316Z,15.90
2022-08-07T03:14:01.415Z,15.80
2022-08-07T03:16:30.997Z,15.80
2022-08-07T03:18:59.356Z,15.70
2022-08-07T03:21:28.152Z,15.70
2022-08-07T03:24:20.685Z,15.70
2022-08-07T03:26:58.305Z,15.60
2022-08-07T03:29:37.812Z,15.50
2022-08-07T03:32:13.192Z,15.50
2022-08-07T03:34:47.464Z,15.40
2022-08-07T03:37:37.364Z,15.50
2022-08-07T03:40:16.425Z,15.40
2022-08-07T03:42:44.513Z,15.50
2022-08-07T03:45:12.678Z,15.50
2022-08-07T03:47:58.827Z,15.50
2022-08-07T03:50:28.627Z,15.50
2022-08-07T03:53:01.420Z,15.40
2022-08-07T03:55:52.863Z,15.40
2022-08-07T03:59:05.399Z,15.40
2022-08-07T04:01:14.503Z,15.40
2022-08-07T04:03:53.456Z,15.40
2022-08-07T04:06:36.307Z,15.30
2022-08-07T04:09:05.966Z,15.30
2022-08-07T04:12:23.991Z,15.30
2022-08-07T04:14:37.631Z,15.40
2022-08-07T04:18:31.915Z,15.30
2022-08-07T04:19:55.185Z,15.30
2022-08-07T04:22:27.546Z,15.20
2022-08-07T04:25:01.061Z,15.20
2022-08-07T04:27:29.079Z,15.10
2022-08-07T04:30:13.458Z,15.10
2022-08-07T04:32:58.399Z,15.00
2022-08-07T04:35:26.588Z,15.00
2022-08-07T04:38:03.703Z,14.90
2022-08-07T04:40:35.336Z,15.00
2022-08-07T04:43:03.267Z,15.00
2022-08-07T04:46:00.778Z,15.00
2022-08-07T04:48:55.526Z,15.10
2022-08-07T04:51:39.227Z,15.10
2022-08-07T04:54:50.613Z,15.10
2022-08-07T04:58:12.788Z,15.00
2022-08-07T05:00:24.291Z,15.00
2022-08-07T05:03:31.100Z,15.00
2022-08-07T05:06:43.709Z,15.00
2022-08-07T05:09:46.966Z,15.00
2022-08-07T05:12:26.869Z,14.90
2022-08-07T05:15:23.842Z,15.00
2022-08-07T05:18:00.486Z,14.90
2022-08-07T05:20:38.340Z,14.90
2022-08-07T05:23:15.934Z,14.90
2022-08-07T05:26:10.811Z,14.90
2022-08-07T05:28:52.532Z,14.90
2022-08-07T05:31:34.622Z,15.00
2022-08-07T05:34:10.786Z,15.10
2022-08-07T05:36:41.815Z,15.10
2022-08-07T05:40:13.616Z,15.20
2022-08-07T05:42:01.079Z,15.30
2022-08-07T05:44:36.311Z,15.30
2022-08-07T05:47:18.343Z,15.40
2022-08-07T05:49:53.277Z,15.50
2022-08-07T05:52:29.911Z,15.40
2022-08-07T05:55:07.040Z,15.50
2022-08-07T05:57:42.282Z,15.50
2022-08-07T06:00:16.734Z,15.60
2022-08-07T06:02:50.481Z,15.60
2022-08-07T06:05:28.438Z,15.80
2022-08-07T06:08:29.647Z,15.90
2022-08-07T06:10:52.029Z,15.90
2022-08-07T06:14:10.765Z,15.90
2022-08-07T06:16:13.443Z,16.00
2022-08-07T06:18:43.358Z,16.10
2022-08-07T06:22:15.202Z,16.10
2022-08-07T06:24:46.014Z,16.10
2022-08-07T06:26:54.186Z,16.10
2022-08-07T06:29:28.573Z,16.10
2022-08-07T06:31:56.272Z,16.20
2022-08-07T06:34:29.744Z,16.20
2022-08-07T06:36:57.444Z,16.30
2022-08-07T06:40:19.759Z,16.30
2022-08-07T06:42:20.399Z,16.20
2022-08-07T06:45:02.663Z,16.30
2022-08-07T06:47:48.106Z,16.30
2022-08-07T06:50:18.947Z,16.20
2022-08-07T06:52:53.139Z,16.30
2022-08-07T06:55:48.094Z,16.30
2022-08-07T06:58:24.491Z,16.30
2022-08-07T07:00:56.711Z,16.30
2022-08-07T07:03:37.675Z,16.40
2022-08-07T07:06:13.390Z,16.30
2022-08-07T07:08:46.581Z,16.40
2022-08-07T07:12:07.575Z,16.40
2022-08-07T07:14:03.957Z,16.50
2022-08-07T07:16:45.435Z,16.50
2022-08-07T07:19:57.970Z,16.60
2022-08-07T07:22:36.413Z,16.60
2022-08-07T07:26:32.717Z,16.70
2022-08-07T07:29:38.536Z,16.80
2022-08-07T07:31:55.469Z,16.80
2022-08-07T07:34:34.909Z,16.90
2022-08-07T07:37:21.651Z,16.90
2022-08-07T07:39:55.407Z,17.00
2022-08-07T07:42:32.424Z,17.00
2022-08-07T07:45:07.440Z,17.10
2022-08-07T07:47:51.980Z,17.10
2022-08-07T07:50:33.945Z,17.10
2022-08-07T07:53:20.156Z,17.20
2022-08-07T07:56:00.904Z,17.20
2022-08-07T07:58:37.130Z,17.20
2022-08-07T08:02:03.024Z,17.30
2022-08-07T08:04:10.122Z,17.30
2022-08-07T08:06:50.953Z,17.30
2022-08-07T08:09:29.125Z,17.40
2022-08-07T08:12:03.890Z,17.50
2022-08-07T08:14:36.171Z,17.60
2022-08-07T08:17:56.285Z,17.80
2022-08-07T08:20:18.169Z,18.30
2022-08-07T08:23:12.871Z,18.50
2022-08-07T08:26:07.072Z,18.90
2022-08-07T08:28:44.793Z,19.30
2022-08-07T08:31:22.928Z,19.80
2022-08-07T08:34:12.518Z,20.00
2022-08-07T08:36:58.150Z,20.30
2022-08-07T08:39:39.728Z,20.40
2022-08-07T08:42:41.150Z,20.40
2022-08-07T08:45:26.746Z,20.40
2022-08-07T08:48:28.287Z,20.70
2022-08-07T08:51:26.242Z,21.00
2022-08-07T08:54:46.224Z,20.90
2022-08-07T08:57:46.715Z,21.30
2022-08-07T09:00:16.885Z,21.40
2022-08-07T09:03:07.678Z,21.60
2022-08-07T09:05:51.955Z,21.20
2022-08-07T09:08:48.905Z,21.60
2022-08-07T09:12:30.305Z,22.00
2022-08-07T09:16:22.695Z,21.90
2022-08-07T09:19:50.631Z,22.00
2022-08-07T09:24:31.902Z,22.20
2022-08-07T09:25:53.403Z,22.70
2022-08-07T09:30:05.999Z,22.70
2022-08-07T09:31:54.700Z,22.30
2022-08-07T09:34:36.892Z,22.70
2022-08-07T09:37:47.923Z,22.50
2022-08-07T09:40:41.145Z,22.50
2022-08-07T09:44:03.298Z,22.60
2022-08-07T09:47:50.519Z,22.10
2022-08-07T09:50:19.573Z,22.00
2022-08-07T09:53:09.988Z,22.50
2022-08-07T09:56:11.143Z,22.30
2022-08-07T09:59:14.782Z,22.10
2022-08-07T10:02:14.647Z,22.40
2022-08-07T10:05:12.714Z,22.40
2022-08-07T10:08:20.012Z,22.70
2022-08-07T10:11:16.684Z,22.80
2022-08-07T10:14:39.133Z,22.90
2022-08-07T10:18:01.434Z,22.50
2022-08-07T10:21:50.581Z,22.30
2022-08-07T10:24:08.498Z,22.60
2022-08-07T10:27:15.907Z,23.00
2022-08-07T10:30:07.079Z,23.10
2022-08-07T10:34:07.028Z,22.90
2022-08-07T10:37:04.058Z,23.10
2022-08-07T10:40:12.652Z,22.90
2022-08-07T10:43:12.732Z,23.30
2022-08-07T10:45:58.090Z,23.30
2022-08-07T10:48:36.637Z,23.40
2022-08-07T10:51:57.344Z,22.90
2022-08-07T10:54:41.431Z,23.00
2022-08-07T10:58:12.064Z,23.10
2022-08-07T11:01:24.949Z,23.20
2022-08-07T11:04:45.622Z,23.50
2022-08-07T11:07:59.508Z,23.80
2022-08-07T11:11:03.885Z,23.50
2022-08-07T11:14:43.772Z,23.30
2022-08-07T11:16:40.920Z,23.70
2022-08-07T11:19:37.490Z,23.90
2022-08-07T11:22:36.124Z,23.70
2022-08-07T11:25:28.575Z,23.80
2022-08-07T11:28:15.477Z,23.30
2022-08-07T11:31:08.695Z,23.10
2022-08-07T11:34:01.703Z,23.10
2022-08-07T11:37:13.008Z,23.20
2022-08-07T11:40:00.427Z,23.40
2022-08-07T11:42:57.620Z,23.50
2022-08-07T11:46:07.666Z,23.30
2022-08-07T11:49:51.068Z,23.30
2022-08-07T11:52:51.746Z,23.60
2022-08-07T11:56:26.743Z,23.90
2022-08-07T12:00:12.090Z,24.00
2022-08-07T12:03:41.858Z,24.10
2022-08-07T12:06:50.299Z,23.60
2022-08-07T12:09:35.639Z,23.70
2022-08-07T12:12:12.357Z,23.80
2022-08-07T12:16:05.080Z,23.90
2022-08-07T12:18:29.861Z,24.10
2022-08-07T12:21:55.648Z,23.90
2022-08-07T12:24:40.344Z,24.10
2022-08-07T12:27:16.836Z,23.90
2022-08-07T12:30:01.900Z,23.90
2022-08-07T12:32:50.033Z,23.90
2022-08-07T12:35:20.638Z,23.80
2022-08-07T12:38:11.711Z,24.10
2022-08-07T12:40:48.547Z,24.10
2022-08-07T12:44:03.586Z,24.00
2022-08-07T12:46:54.508Z,24.00
2022-08-07T12:50:04.614Z,24.10
2022-08-07T12:52:48.631Z,24.10
2022-08-07T12:56:02.589Z,24.30
2022-08-07T12:58:39.715Z,24.20
2022-08-07T13:01:32.040Z,24.30
2022-08-07T13:05:02.867Z,24.00
2022-08-07T13:08:11.914Z,24.20
2022-08-07T13:11:26.829Z,24.40
2022-08-07T13:14:37.871Z,24.60
2022-08-07T13:17:49.572Z,24.50
2022-08-07T13:20:34.414Z,24.50
2022-08-07T13:24:01.730Z,24.30
2022-08-07T13:26:20.079Z,24.10
2022-08-07T13:29:35.070Z,24.10
2022-08-07T13:32:32.568Z,24.20
2022-08-07T13:35:08.656Z,24.40
2022-08-07T13:38:41.943Z,24.40
2022-08-07T13:41:48.432Z,24.10
2022-08-07T13:44:26.669Z,24.00
2022-08-07T13:47:09.343Z,24.00
2022-08-07T13:50:34.309Z,24.10
2022-08-07T13:52:40.869Z,23.80
2022-08-07T13:55:26.260Z,23.90
2022-08-07T13:58:31.674Z,24.20
2022-08-07T14:01:14.915Z,24.30
2022-08-07T14:04:05.515Z,24.30
2022-08-07T14:06:47.238Z,24.40
2022-08-07T14:10:05.150Z,24.20
2022-08-07T14:12:30.940Z,24.20
2022-08-07T14:15:11.057Z,24.30
2022-08-07T14:18:16.086Z,24.50
2022-08-07T14:20:42.944Z,24.50
2022-08-07T14:23:58.827Z,24.40
2022-08-07T14:26:28.088Z,24.30
2022-08-07T14:31:57.926Z,24.50
2022-08-07T14:34:30.830Z,24.50
2022-08-07T14:37:03.682Z,24.50
2022-08-07T14:40:15.607Z,24.10
2022-08-07T14:43:54.927Z,24.20
2022-08-07T14:45:46.735Z,24.00
2022-08-07T14:48:20.666Z,24.20
2022-08-07T14:50:53.416Z,24.20
2022-08-07T14:54:03.467Z,24.30
2022-08-07T14:56:13.193Z,24.30
2022-08-07T15:01:42.358Z,24.70
2022-08-07T15:04:14.728Z,24.90
2022-08-07T15:06:51.996Z,24.80
2022-08-07T15:09:59.014Z,24.90
2022-08-07T15:12:35.064Z,24.80
2022-08-07T15:15:21.378Z,24.60
2022-08-07T15:18:03.375Z,24.70
2022-08-07T15:20:55.356Z,24.70
2022-08-07T15:25:03.069Z,24.60
2022-08-07T15:26:35.311Z,24.40
2022-08-07T15:35:03.885Z,24.30
2022-08-07T15:38:17.735Z,24.50
2022-08-07T15:40:33.868Z,24.40
2022-08-07T15:43:52.827Z,24.30
2022-08-07T15:46:31.651Z,24.00
2022-08-07T15:49:15.316Z,24.00
2022-08-07T15:54:34.503Z,23.90
2022-08-07T15:57:06.111Z,23.70
2022-08-07T15:59:44.002Z,23.70
2022-08-07T16:02:25.409Z,23.70
2022-08-07T16:05:03.213Z,23.50
2022-08-07T16:08:33.089Z,23.60
2022-08-07T16:10:36.713Z,23.50
2022-08-07T16:13:57.736Z,23.80
2022-08-07T16:16:57.207Z,24.00
2022-08-07T16:20:32.962Z,24.10
2022-08-07T16:23:54.792Z,24.30
2022-08-07T16:26:30.938Z,24.30
2022-08-07T16:30:10.147Z,23.90
2022-08-07T16:32:54.121Z,24.00
2022-08-07T16:35:56.800Z,23.60
2022-08-07T16:39:01.423Z,23.50
2022-08-07T16:41:54.328Z,23.60
2022-08-07T16:45:15.444Z,23.60
2022-08-07T16:48:30.025Z,23.60
2022-08-07T16:52:35.391Z,23.50
2022-08-07T16:55:13.027Z,23.60
2022-08-07T16:58:08.229Z,23.70
2022-08-07T17:00:44.362Z,23.60
2022-08-07T17:03:11.040Z,23.60
2022-08-07T17:06:29.404Z,23.60
2022-08-07T17:09:10.399Z,23.70
2022-08-07T17:12:44.684Z,23.60
2022-08-07T17:15:28.847Z,23.50
2022-08-07T17:18:30.029Z,23.50
2022-08-07T17:20:56.897Z,23.20
2022-08-07T17:23:33.106Z,23.00
2022-08-07T17:26:50.090Z,23.30
2022-08-07T17:30:16.010Z,23.20
2022-08-07T17:34:08.583Z,23.40
2022-08-07T17:36:20.256Z,23.20
2022-08-07T17:38:56.520Z,23.10
2022-08-07T17:42:04.422Z,22.90
2022-08-07T17:44:50.012Z,22.80
2022-08-07T17:47:42.338Z,22.90
2022-08-07T17:50:34.840Z,23.00
2022-08-07T17:54:00.881Z,22.70
2022-08-07T17:56:39.216Z,22.60
2022-08-07T17:59:35.954Z,22.40
2022-08-07T18:02:23.372Z,22.30
2022-08-07T18:05:21.709Z,22.30
2022-08-07T18:08:33.248Z,22.30
2022-08-07T18:12:17.869Z,22.00
2022-08-07T18:14:51.187Z,22.10
2022-08-07T18:18:46.130Z,22.00
2022-08-07T18:21:11.945Z,21.90
2022-08-07T18:23:57.223Z,21.70
2022-08-07T18:26:40.730Z,21.80
2022-08-07T18:30:06.319Z,21.50
2022-08-07T18:32:52.044Z,21.60
2022-08-07T18:35:57.200Z,21.70
2022-08-07T18:38:54.780Z,21.60
2022-08-07T18:42:13.173Z,21.40
2022-08-07T18:45:44.508Z,21.50
2022-08-07T18:50:05.101Z,21.50
2022-08-07T18:52:35.451Z,21.50
2022-08-07T18:54:51.154Z,21.40
2022-08-07T18:58:17.581Z,21.10
2022-08-07T19:01:00.834Z,21.10
2022-08-07T19:04:03.894Z,21.20
2022-08-07T19:06:53.158Z,21.10
2022-08-07T19:09:57.609Z,21.00
2022-08-07T19:12:48.720Z,21.00
2022-08-07T19:16:02.310Z,20.90
2022-08-07T19:18:45.217Z,20.90
2022-08-07T19:21:48.093Z,20.90
2022-08-07T19:24:35.458Z,20.80
2022-08-07T19:28:29.749Z,20.70
2022-08-07T19:31:06.122Z,20.70
2022-08-07T19:32:59.762Z,20.60
2022-08-07T19:35:33.267Z,20.50
2022-08-07T19:38:15.689Z,20.60
2022-08-07T19:40:50.394Z,20.60
2022-08-07T19:43:44.104Z,20.60
2022-08-07T19:46:14.896Z,20.50
2022-08-07T19:48:53.612Z,20.50
2022-08-07T19:51:51.755Z,20.50
2022-08-07T19:54:34.870Z,20.50
2022-08-07T19:57:51.232Z,20.50
2022-08-07T20:00:08.927Z,20.50
2022-08-07T20:02:53.290Z,20.60
2022-08-07T20:05:30.663Z,20.70
2022-08-07T20:08:24.995Z,20.80
2022-08-07T20:11:01.835Z,20.80
2022-08-07T20:13:43.320Z,20.70
2022-08-07T20:16:34.896Z,20.70
2022-08-07T20:19:10.617Z,20.70
2022-08-07T20:21:48.428Z,20.70
2022-08-07T20:24:29.958Z,20.70
2022-08-07T20:27:04.294Z,20.50
2022-08-07T20:30:10.935Z,20.20
2022-08-07T20:32:46.628Z,20.20
2022-08-07T20:35:36.524Z,20.00
2022-08-07T20:38:27.626Z,19.90
2022-08-07T20:41:03.765Z,19.90
2022-08-07T20:43:34.943Z,19.90
2022-08-07T20:46:26.564Z,20.00
2022-08-07T20:50:00.919Z,20.00
2022-08-07T20:51:49.178Z,19.80
2022-08-07T20:54:29.958Z,19.90
2022-08-07T20:57:08.344Z,19.80
2022-08-07T21:00:07.873Z,19.80
2022-08-07T21:02:54.268Z,19.70
2022-08-07T21:05:52.694Z,19.70
2022-08-07T21:08:29.384Z,19.60
2022-08-07T21:11:14.376Z,19.70
2022-08-07T21:14:16.945Z,19.60
2022-08-07T21:16:56.882Z,19.70
2022-08-07T21:19:51.483Z,19.60
2022-08-07T21:22:28.310Z,19.80
2022-08-07T21:25:13.061Z,19.70
2022-08-07T21:28:19.092Z,19.80
2022-08-07T21:32:41.896Z,19.80
2022-08-07T21:35:01.317Z,19.70
2022-08-07T21:37:59.268Z,19.70
2022-08-07T21:41:01.923Z,19.70
2022-08-07T21:43:56.681Z,19.60
2022-08-07T21:47:18.094Z,19.60
2022-08-07T21:50:30.015Z,19.60
2022-08-07T21:53:16.174Z,19.60
2022-08-07T21:55:48.737Z,19.70
2022-08-07T21:58:40.078Z,19.60
2022-08-07T22:02:07.073Z,19.60
2022-08-07T22:04:26.882Z,19.60
2022-08-07T22:07:22.887Z,19.50
2022-08-07T22:10:05.667Z,19.30
2022-08-07T22:12:55.897Z,19.30
2022-08-07T22:16:42.597Z,19.20
2022-08-07T22:19:07.471Z,19.30
2022-08-07T22:22:21.072Z,19.20
2022-08-07T22:25:27.109Z,19.00
2022-08-07T22:28:31.440Z,19.00
2022-08-07T22:31:56.213Z,19.20
2022-08-07T22:34:57.531Z,19.20
2022-08-07T22:38:04.285Z,19.30
2022-08-07T22:40:54.526Z,19.30
2022-08-07T22:43:44.998Z,19.30
2022-08-07T22:47:03.405Z,19.30
2022-08-07T22:50:33.105Z,19.30
2022-08-07T22:54:07.501Z,19.30
2022-08-07T22:56:49.112Z,19.30
2022-08-07T22:59:49.740Z,19.20
2022-08-07T23:02:52.842Z,19.10
2022-08-07T23:06:07.670Z,19.10
2022-08-07T23:08:54.283Z,19.10
2022-08-07T23:12:09.611Z,19.10
2022-08-07T23:16:04.778Z,19.10
2022-08-07T23:18:31.999Z,19.00
2022-08-07T23:21:29.821Z,19.00
2022-08-07T23:24:34.187Z,18.90
2022-08-07T23:28:22.745Z,18.90
2022-08-07T23:31:11.737Z,18.90
2022-08-07T23:34:33.620Z,18.80
2022-08-07T23:38:01.062Z,18.80
2022-08-07T23:40:48.533Z,18.70
2022-08-07T23:43:52.756Z,18.60
2022-08-07T23:46:53.393Z,18.60
2022-08-07T23:49:51.221Z,18.50
2022-08-07T23:52:58.252Z,18.20
2022-08-07T23:55:52.903Z,18.20
2022-08-07T23:59:10.286Z,18.10
